Time;durP1;ratioP1;P1;durP2;ratioP2;P2;SDS_P1;SDS_P2;PMS_P1;PMS_P2;Temp;Humidity;BMP_temperature;BMP_pressure;BME280_temperature;BME280_humidity;BME280_pressure;Samples;Min_cycle;Max_cycle;Signal;HPM_P1;HPM_P2
2023/06/10 00:01:02;;;;;;;;;;;;;;;26.15;38.51;100963.25;2240707;78;51125;-76
2023/06/10 00:04:04;;;;;;;;;;;;;;;26.15;38.52;100965.11;2240711;78;50737;-77
2023/06/10 00:07:08;;;;;;;;;;;;;;;26.14;38.54;100967.00;2255510;78;52180;-77
2023/06/10 00:10:10;;;;;;;;;;;;;;;26.14;38.56;100959.39;2229550;79;50684;-77
2023/06/10 00:13:12;;;;;;;;;;;;;;;26.14;38.55;100950.72;2206988;80;49661;-76
2023/06/10 00:16:13;;;;;;;;;;;;;;;26.14;38.56;100957.50;2206767;80;51403;-77
2023/06/10 00:19:15;;;;;;;;;;;;;;;26.14;38.56;100959.39;2206884;80;52064;-77
2023/06/10 00:22:17;;;;;;;;;;;;;;;26.13;38.60;100958.58;2229599;78;51519;-77
2023/06/10 00:25:19;;;;;;;;;;;;;;;26.13;38.61;100951.80;2183405;80;50949;-77
2023/06/10 00:28:20;;;;;;;;;;;;;;;26.13;38.61;100938.23;2206841;80;50392;-77
2023/06/10 00:31:22;;;;;;;;;;;;;;;26.13;38.64;100948.26;2207006;79;50366;-77
2023/06/10 00:34:24;;;;;;;;;;;;;;;26.13;38.64;100949.08;2229548;78;51542;-77
2023/06/10 00:37:26;;;;;;;;;;;;;;;26.12;38.65;100951.47;2227331;78;49715;-77
2023/06/10 00:40:27;;;;;;;;;;;;;;;26.12;38.70;100952.83;2241008;77;50311;-76
2023/06/10 00:43:29;;;;;;;;;;;;;;;26.11;38.67;100947.12;2243682;78;50218;-76
2023/06/10 00:46:32;;;;;;;;;;;;;;;26.12;38.68;100943.88;2266502;78;50746;-75
2023/06/10 00:49:34;;;;;;;;;;;;;;;26.10;38.70;100947.33;2243208;78;52356;-76
2023/06/10 00:52:36;;;;;;;;;;;;;;;26.11;38.70;100951.72;2266666;77;51644;-76
2023/06/10 00:55:37;;;;;;;;;;;;;;;26.10;38.71;100949.54;2243810;78;51493;-77
2023/06/10 00:58:39;;;;;;;;;;;;;;;26.11;38.70;100945.77;2265790;77;51502;-76
2023/06/10 01:01:41;;;;;;;;;;;;;;;26.09;38.72;100951.93;2266895;78;50379;-76
2023/06/10 01:04:42;;;;;;;;;;;;;;;26.11;38.72;100955.25;2267199;77;51515;-76
2023/06/10 01:07:49;;;;;;;;;;;;;;;26.11;38.72;100960.67;2249414;77;51580;-76
2023/06/10 01:10:51;;;;;;;;;;;;;;;26.09;38.72;100960.06;2229682;80;50129;-76
2023/06/10 01:13:53;;;;;;;;;;;;;;;26.08;38.73;100950.28;2229830;80;50418;-76
2023/06/10 01:16:56;;;;;;;;;;;;;;;26.09;38.74;100957.89;2207152;80;51619;-76
2023/06/10 01:19:58;;;;;;;;;;;;;;;26.08;38.75;100963.02;2229951;80;51575;-76
2023/06/10 01:23:00;;;;;;;;;;;;;;;26.07;38.76;100958.10;2229838;80;50692;-76
2023/06/10 01:26:03;;;;;;;;;;;;;;;26.07;38.80;100962.17;2207295;80;51710;-76
2023/06/10 01:29:13;;;;;;;;;;;;;;;26.06;38.79;100955.92;2229105;79;50794;-76
2023/06/10 01:32:25;;;;;;;;;;;;;;;26.06;38.80;100957.81;2230083;78;50819;-76
2023/06/10 01:35:27;;;;;;;;;;;;;;;26.07;38.80;100960.81;2233221;78;50730;-76
2023/06/10 01:38:28;;;;;;;;;;;;;;;26.06;38.82;100964.06;2234749;78;51162;-76
2023/06/10 01:41:30;;;;;;;;;;;;;;;26.06;38.82;100967.30;2229619;80;51546;-76
2023/06/10 01:44:31;;;;;;;;;;;;;;;26.05;38.84;100967.84;2229703;80;50330;-76
2023/06/10 01:47:33;;;;;;;;;;;;;;;26.05;38.86;100966.48;2206916;80;50394;-76
2023/06/10 01:50:35;;;;;;;;;;;;;;;26.06;38.85;100960.52;2183631;80;51268;-76
2023/06/10 01:53:36;;;;;;;;;;;;;;;26.05;38.84;100960.23;2207152;80;49992;-76
2023/06/10 01:56:38;;;;;;;;;;;;;;;26.05;38.85;100964.30;2229447;80;50308;-76
2023/06/10 01:59:39;;;;;;;;;;;;;;;26.04;38.85;100965.34;2207017;80;50650;-76
2023/06/10 02:02:41;;;;;;;;;;;;;;;26.05;38.86;100961.59;2207262;80;51256;-77
2023/06/10 02:05:43;;;;;;;;;;;;;;;26.05;38.87;100965.66;2212473;78;51509;-77
2023/06/10 02:08:44;;;;;;;;;;;;;;;26.05;38.87;100962.95;2252658;78;50714;-77
2023/06/10 02:11:46;;;;;;;;;;;;;;;26.04;38.85;100964.80;2263993;77;50248;-77
2023/06/10 02:14:47;;;;;;;;;;;;;;;26.04;38.87;100966.16;2240887;78;50307;-77
2023/06/10 02:17:50;;;;;;;;;;;;;;;26.05;38.87;100958.87;2240790;78;50412;-77
2023/06/10 02:20:52;;;;;;;;;;;;;;;26.03;38.88;100972.66;2240806;78;51494;-76
2023/06/10 02:23:53;;;;;;;;;;;;;;;26.03;38.87;100964.52;2263986;78;51478;-77
2023/06/10 02:26:55;;;;;;;;;;;;;;;26.03;38.87;100970.47;2216453;78;49635;-77
2023/06/10 02:29:57;;;;;;;;;;;;;;;26.03;38.89;100965.87;2241058;77;51515;-77
2023/06/10 02:32:59;;;;;;;;;;;;;;;26.04;38.89;100966.69;2241032;78;52591;-77
2023/06/10 02:36:00;;;;;;;;;;;;;;;26.03;38.89;100973.19;2259277;78;50640;-77
2023/06/10 02:39:03;;;;;;;;;;;;;;;26.04;38.89;100968.05;2193458;80;51075;-77
2023/06/10 02:42:06;;;;;;;;;;;;;;;26.02;38.91;100968.30;2183537;79;51230;-77
2023/06/10 02:45:08;;;;;;;;;;;;;;;26.02;38.93;100974.22;2207408;80;50749;-77
2023/06/10 02:48:10;;;;;;;;;;;;;;;26.02;38.94;100971.51;2206756;80;50441;-77
2023/06/10 02:51:11;;;;;;;;;;;;;;;26.02;38.92;100966.94;2229721;80;50274;-77
2023/06/10 02:54:13;;;;;;;;;;;;;;;26.02;38.92;100969.65;2207156;78;50353;-77
2023/06/10 02:57:14;;;;;;;;;;;;;;;26.01;38.92;100972.04;2207171;80;50646;-77
2023/06/10 03:00:16;;;;;;;;;;;;;;;26.02;38.93;100981.85;2207502;80;50252;-77
2023/06/10 03:03:18;;;;;;;;;;;;;;;26.02;38.94;100972.86;2183916;79;51264;-77
2023/06/10 03:06:20;;;;;;;;;;;;;;;26.01;38.93;100981.53;2219761;78;51545;-77
2023/06/10 03:09:21;;;;;;;;;;;;;;;26.01;38.95;100980.17;2207168;80;51581;-77
2023/06/10 03:12:23;;;;;;;;;;;;;;;26.02;38.98;100979.64;2207610;80;51430;-77
2023/06/10 03:15:24;;;;;;;;;;;;;;;26.01;38.99;100985.59;2207196;80;52229;-77
2023/06/10 03:18:26;;;;;;;;;;;;;;;26.01;38.97;100972.58;2207235;80;50608;-76
2023/06/10 03:21:28;;;;;;;;;;;;;;;26.01;38.97;100979.35;2229805;79;50276;-76
2023/06/10 03:24:30;;;;;;;;;;;;;;;26.00;39.00;100982.59;2230028;80;50221;-76
2023/06/10 03:27:32;;;;;;;;;;;;;;;26.01;39.00;100979.35;2184956;80;52396;-77
2023/06/10 03:30:34;;;;;;;;;;;;;;;26.00;39.00;100988.02;2207636;80;50725;-76
2023/06/10 03:33:36;;;;;;;;;;;;;;;26.00;39.01;100986.66;2241684;77;50337;-76
2023/06/10 03:36:38;;;;;;;;;;;;;;;26.00;39.04;100979.88;2253907;77;50309;-77
2023/06/10 03:39:40;;;;;;;;;;;;;;;26.01;39.02;100980.70;2184204;80;52523;-76
2023/06/10 03:42:41;;;;;;;;;;;;;;;26.01;39.02;100986.13;2207065;80;50670;-76
2023/06/10 03:45:43;;;;;;;;;;;;;;;26.00;39.04;100989.91;2229947;80;50270;-77
2023/06/10 03:48:45;;;;;;;;;;;;;;;26.01;39.04;100992.91;2206852;80;50662;-76
2023/06/10 03:51:46;;;;;;;;;;;;;;;26.00;39.04;100988.55;2207205;80;52394;-76
2023/06/10 03:54:48;;;;;;;;;;;;;;;26.00;39.01;100998.05;2229506;80;51350;-76
2023/06/10 03:57:50;;;;;;;;;;;;;;;26.00;39.03;100992.63;2229467;80;51459;-77
2023/06/10 04:00:51;;;;;;;;;;;;;;;26.00;39.05;100999.41;2229639;80;50731;-77
2023/06/10 04:03:54;;;;;;;;;;;;;;;26.00;39.05;100993.44;2201104;77;52425;-77
2023/06/10 04:06:55;;;;;;;;;;;;;;;26.00;39.05;100993.98;2253915;77;50309;-76
2023/06/10 04:09:57;;;;;;;;;;;;;;;26.00;39.05;100996.16;2241031;78;50464;-77
2023/06/10 04:12:59;;;;;;;;;;;;;;;25.99;39.06;100999.91;2264515;78;50440;-76
2023/06/10 04:16:02;;;;;;;;;;;;;;;26.00;39.05;101003.47;2241195;78;52480;-76
2023/06/10 04:19:03;;;;;;;;;;;;;;;25.99;39.04;101002.61;2263944;78;50325;-77
2023/06/10 04:22:05;;;;;;;;;;;;;;;26.00;39.01;101000.75;2241088;78;52413;-77
2023/06/10 04:25:09;;;;;;;;;;;;;;;26.00;39.05;100996.69;2241055;78;51607;-77
2023/06/10 04:28:10;;;;;;;;;;;;;;;26.00;39.06;101000.75;2240527;78;52339;-77
2023/06/10 04:31:12;;;;;;;;;;;;;;;25.99;39.06;101008.57;2216714;78;50981;-76
2023/06/10 04:34:14;;;;;;;;;;;;;;;25.99;39.08;101005.33;2263402;77;51565;-77
2023/06/10 04:37:15;;;;;;;;;;;;;;;26.00;39.06;101008.89;2256316;78;50683;-77
2023/06/10 04:40:17;;;;;;;;;;;;;;;25.98;39.04;101020.48;2243613;78;52499;-77
2023/06/10 04:43:19;;;;;;;;;;;;;;;25.98;39.07;101024.02;2243718;78;50736;-76
2023/06/10 04:46:20;;;;;;;;;;;;;;;25.98;39.08;101021.84;2266713;78;51503;-76
2023/06/10 04:49:22;;;;;;;;;;;;;;;25.98;39.08;101022.66;2266800;78;50065;-76
2023/06/10 04:52:24;;;;;;;;;;;;;;;25.98;39.08;101018.59;2243462;78;51156;-76
2023/06/10 04:55:26;;;;;;;;;;;;;;;25.99;39.08;101020.77;2266941;78;51546;-76
2023/06/10 04:58:27;;;;;;;;;;;;;;;25.98;39.09;101024.55;2266817;78;50255;-76
2023/06/10 05:01:29;;;;;;;;;;;;;;;25.98;39.08;101025.91;2244140;78;50415;-76
2023/06/10 05:04:30;;;;;;;;;;;;;;;25.98;39.09;101027.26;2239608;78;51378;-76
2023/06/10 05:07:32;;;;;;;;;;;;;;;25.99;39.09;101030.27;2236409;78;52459;-76
2023/06/10 05:10:34;;;;;;;;;;;;;;;25.98;39.07;101031.33;2266892;78;51361;-75
2023/06/10 05:13:36;;;;;;;;;;;;;;;26.00;39.04;101028.70;2243673;78;50720;-76
2023/06/10 05:16:38;;;;;;;;;;;;;;;26.16;38.88;101036.77;2243544;78;51592;-77
2023/06/10 05:19:41;;;;;;;;;;;;;;;26.24;38.86;101039.19;2267085;78;50375;-77
2023/06/10 05:22:43;;;;;;;;;;;;;;;26.28;38.86;101030.91;2267043;78;51398;-78
2023/06/10 05:25:44;;;;;;;;;;;;;;;26.33;38.86;101033.45;2267078;78;51443;-78
2023/06/10 05:28:46;;;;;;;;;;;;;;;26.35;38.86;101038.95;2243578;78;50704;-77
2023/06/10 05:31:47;;;;;;;;;;;;;;;26.28;39.07;101047.69;2244210;78;51406;-77
2023/06/10 05:34:49;;;;;;;;;;;;;;;26.27;39.06;101047.40;2259700;77;51367;-77
2023/06/10 05:37:51;;;;;;;;;;;;;;;26.22;39.18;101047.25;2262144;78;51547;-77
2023/06/10 05:40:52;;;;;;;;;;;;;;;26.20;39.22;101043.42;2243237;78;51547;-79
2023/06/10 05:43:54;;;;;;;;;;;;;;;26.21;39.17;101042.35;2266671;78;51449;-78
2023/06/10 05:46:55;;;;;;;;;;;;;;;26.24;39.15;101042.43;2266384;78;51514;-78
2023/06/10 05:49:57;;;;;;;;;;;;;;;26.24;39.15;101047.33;2266730;78;51427;-78
2023/06/10 05:52:59;;;;;;;;;;;;;;;26.25;39.13;101039.47;2243593;78;50374;-78
2023/06/10 05:56:00;;;;;;;;;;;;;;;26.28;39.16;101039.55;2243368;78;50314;-78
2023/06/10 05:59:02;;;;;;;;;;;;;;;26.30;39.11;101042.88;2266682;78;50632;-78
2023/06/10 06:02:04;;;;;;;;;;;;;;;26.28;39.18;101047.19;2266774;78;51448;-78
2023/06/10 06:05:05;;;;;;;;;;;;;;;26.26;39.27;101042.52;2234579;78;51086;-78
2023/06/10 06:08:07;;;;;;;;;;;;;;;26.27;39.20;101050.11;2264972;78;50263;-78
2023/06/10 06:11:09;;;;;;;;;;;;;;;26.26;39.22;101049.30;2266749;78;51469;-78
2023/06/10 06:14:11;;;;;;;;;;;;;;;26.26;39.21;101053.36;2266726;78;51540;-78
2023/06/10 06:17:12;;;;;;;;;;;;;;;26.28;39.19;101051.76;2266554;78;50641;-79
2023/06/10 06:20:14;;;;;;;;;;;;;;;26.28;39.17;101058.04;2243496;78;51436;-78
2023/06/10 06:23:15;;;;;;;;;;;;;;;26.38;39.05;101055.31;2243425;78;51541;-78
2023/06/10 06:26:17;;;;;;;;;;;;;;;26.44;39.09;101059.86;2243230;78;51586;-79
2023/06/10 06:29:19;;;;;;;;;;;;;;;26.35;39.28;101066.09;2243931;78;50187;-78
2023/06/10 06:32:22;;;;;;;;;;;;;;;26.39;39.22;101073.27;2267191;78;50647;-78
2023/06/10 06:35:24;;;;;;;;;;;;;;;26.38;39.28;101066.99;2241621;78;51509;-78
2023/06/10 06:38:25;;;;;;;;;;;;;;;26.41;39.24;101072.50;2267438;77;51425;-79
2023/06/10 06:41:27;;;;;;;;;;;;;;;26.37;39.31;101071.30;2241073;78;52387;-78
2023/06/10 06:44:29;;;;;;;;;;;;;;;26.32;39.40;101080.11;2266951;78;50688;-77
2023/06/10 06:47:30;;;;;;;;;;;;;;;26.33;39.42;101074.16;2243713;78;51534;-78
2023/06/10 06:50:32;;;;;;;;;;;;;;;26.35;39.35;101078.30;2243952;78;51441;-77
2023/06/10 06:53:33;;;;;;;;;;;;;;;26.38;39.29;101082.45;2243800;78;52408;-78
2023/06/10 06:56:35;;;;;;;;;;;;;;;26.41;39.23;101085.56;2243482;78;50234;-78
2023/06/10 06:59:37;;;;;;;;;;;;;;;26.40;39.28;101085.77;2267001;78;50289;-79
2023/06/10 07:02:38;;;;;;;;;;;;;;;26.44;39.26;101086.99;2243666;78;50267;-77
2023/06/10 07:05:40;;;;;;;;;;;;;;;26.49;39.22;101088.50;2268202;78;49644;-78
2023/06/10 07:08:41;;;;;;;;;;;;;;;26.58;39.10;101089.06;2253710;78;50298;-78
2023/06/10 07:11:43;;;;;;;;;;;;;;;26.50;39.30;101090.16;2237485;78;50738;-77
2023/06/10 07:14:45;;;;;;;;;;;;;;;26.56;39.22;101093.34;2229655;80;50667;-78
2023/06/10 07:17:46;;;;;;;;;;;;;;;26.59;39.21;101101.05;2183647;80;52482;-78
2023/06/10 07:20:48;;;;;;;;;;;;;;;26.66;39.15;101098.25;2207191;80;50712;-78
2023/06/10 07:23:52;;;;;;;;;;;;;;;26.65;39.18;101096.07;2229834;80;51491;-77
2023/06/10 07:26:53;;;;;;;;;;;;;;;26.67;39.16;101098.03;2229637;79;22332;-77
2023/06/10 07:29:54;;;;;;;;;;;;;;;26.69;39.15;101099.15;2183674;80;49638;-78
2023/06/10 07:32:56;;;;;;;;;;;;;;;26.71;39.09;101106.02;2206974;80;51446;-78
2023/06/10 07:35:57;;;;;;;;;;;;;;;26.75;39.07;101106.41;2206983;80;51683;-78
2023/06/10 07:38:59;;;;;;;;;;;;;;;26.71;39.14;101109.27;2239691;78;51385;-78
2023/06/10 07:42:01;;;;;;;;;;;;;;;26.68;39.14;101117.33;2229957;78;51035;-77
2023/06/10 07:45:03;;;;;;;;;;;;;;;26.68;39.13;101107.83;2229146;80;50601;-79
2023/06/10 07:48:04;;;;;;;;;;;;;;;26.67;39.08;101114.86;2229618;80;50282;-78
2023/06/10 07:51:06;;;;;;;;;;;;;;;26.67;39.12;101112.97;2254310;78;50507;-78
2023/06/10 07:54:08;;;;;;;;;;;;;;;26.65;39.13;101111.00;2229459;79;51053;-77
2023/06/10 07:57:09;;;;;;;;;;;;;;;26.63;39.20;101113.10;2229400;79;51600;-78
2023/06/10 08:00:11;;;;;;;;;;;;;;;26.63;39.16;101113.10;2229815;80;51435;-78
2023/06/10 08:03:13;;;;;;;;;;;;;;;26.64;39.15;101113.42;2254492;78;50703;-78
2023/06/10 08:06:16;;;;;;;;;;;;;;;26.65;39.11;101113.72;2229146;80;51850;-79
2023/06/10 08:09:18;;;;;;;;;;;;;;;26.63;39.14;101109.03;2254531;77;22421;-78
2023/06/10 08:12:20;;;;;;;;;;;;;;;26.65;39.11;101107.46;2229707;80;52482;-77
2023/06/10 08:15:21;;;;;;;;;;;;;;;26.65;39.15;101112.36;2207458;80;51510;-78
2023/06/10 08:18:23;;;;;;;;;;;;;;;26.68;39.14;101111.08;2184110;80;51660;-78
2023/06/10 08:21:25;;;;;;;;;;;;;;;26.73;39.10;101115.83;2207679;80;50657;-80
2023/06/10 08:24:26;;;;;;;;;;;;;;;26.70;39.19;101113.05;2207853;80;50704;-77
2023/06/10 08:27:28;;;;;;;;;;;;;;;26.69;39.18;101119.00;2230409;80;50715;-79
2023/06/10 08:30:30;;;;;;;;;;;;;;;26.69;39.15;101120.36;2207993;80;52340;-78
2023/06/10 08:33:31;;;;;;;;;;;;;;;26.66;39.23;101123.50;2207648;80;51506;-78
2023/06/10 08:36:33;;;;;;;;;;;;;;;26.68;39.20;101124.12;2229986;80;51390;-78
2023/06/10 08:39:34;;;;;;;;;;;;;;;26.69;39.18;101124.44;2235583;77;51403;-80
2023/06/10 08:42:38;;;;;;;;;;;;;;;26.73;39.17;101123.98;2222050;79;50006;-78
2023/06/10 08:45:40;;;;;;;;;;;;;;;26.74;39.17;101125.63;2223245;80;50007;-77
2023/06/10 08:48:44;;;;;;;;;;;;;;;26.74;39.18;101126.45;2222810;79;51552;-78
2023/06/10 08:51:46;;;;;;;;;;;;;;;26.75;39.17;101134.91;2240601;79;50766;-78
2023/06/10 08:55:00;;;;;;;;;;;;;;;26.70;39.22;101130.69;2202747;80;49571;-78
2023/06/10 08:58:02;;;;;;;;;;;;;;;26.73;39.20;101138.91;2202570;80;50768;-78
2023/06/10 09:01:03;;;;;;;;;;;;;;;26.73;39.20;101133.48;2223255;80;51534;-78
2023/06/10 09:04:05;;;;;;;;;;;;;;;26.75;39.19;101132.20;2243668;78;51657;-77
2023/06/10 09:07:07;;;;;;;;;;;;;;;26.75;39.22;101134.09;2225716;78;51626;-78
2023/06/10 09:10:09;;;;;;;;;;;;;;;26.76;39.19;101131.66;2271538;77;50762;-76
2023/06/10 09:13:11;;;;;;;;;;;;;;;26.75;39.20;101128.66;2275819;78;50237;-76
2023/06/10 09:16:13;;;;;;;;;;;;;;;26.73;39.22;101132.95;2275384;78;50343;-77
2023/06/10 09:19:16;;;;;;;;;;;;;;;26.74;39.23;101132.41;2256225;78;53195;-77
2023/06/10 09:22:17;;;;;;;;;;;;;;;26.73;39.22;101128.87;2277894;78;50717;-76
2023/06/10 09:25:19;;;;;;;;;;;;;;;26.73;39.27;101129.41;2254644;78;51532;-75
2023/06/10 09:28:20;;;;;;;;;;;;;;;26.74;39.27;101124.27;2275567;78;50680;-75
2023/06/10 09:31:22;;;;;;;;;;;;;;;26.74;39.25;101123.73;2254842;78;52456;-76
2023/06/10 09:34:25;;;;;;;;;;;;;;;26.73;39.29;101118.55;2279590;78;50110;-77
2023/06/10 09:37:27;;;;;;;;;;;;;;;26.73;39.30;101122.63;2284040;77;49024;-77
2023/06/10 09:40:28;;;;;;;;;;;;;;;26.73;39.35;101123.98;2297296;77;51393;-77
2023/06/10 09:43:32;;;;;;;;;;;;;;;26.73;39.34;101130.23;2213496;79;52210;-77
2023/06/10 09:46:33;;;;;;;;;;;;;;;26.75;39.35;101125.95;2243948;78;51768;-76
2023/06/10 09:49:35;;;;;;;;;;;;;;;26.75;39.32;101130.02;2244161;78;51509;-76
2023/06/10 09:52:37;;;;;;;;;;;;;;;26.75;39.37;101130.84;2244122;78;52222;-76
2023/06/10 09:55:39;;;;;;;;;;;;;;;26.75;39.43;101134.09;2212509;79;51076;-76
2023/06/10 09:58:43;;;;;;;;;;;;;;;26.71;39.49;101137.77;2243815;78;51644;-76
2023/06/10 10:01:44;;;;;;;;;;;;;;;26.72;39.47;101144.88;2244585;78;22252;-75
2023/06/10 10:04:45;;;;;;;;;;;;;;;26.70;39.48;101142.37;2243935;78;51502;-76
2023/06/10 10:07:47;;;;;;;;;;;;;;;26.68;39.50;101143.12;2212070;79;52322;-75
2023/06/10 10:10:48;;;;;;;;;;;;;;;26.67;39.54;101137.40;2258842;78;50638;-76
2023/06/10 10:13:51;;;;;;;;;;;;;;;26.67;39.58;101138.75;2275211;78;50378;-75
2023/06/10 10:16:54;;;;;;;;;;;;;;;26.66;39.56;101145.75;2274995;77;50704;-75
2023/06/10 10:19:57;;;;;;;;;;;;;;;26.66;39.59;101144.40;2253920;77;52355;-75
2023/06/10 10:22:59;;;;;;;;;;;;;;;26.64;39.62;101141.92;2275343;77;50779;-76
2023/06/10 10:26:01;;;;;;;;;;;;;;;26.66;39.55;101144.40;2275232;78;51417;-75
2023/06/10 10:29:10;;;;;;;;;;;;;;;26.65;39.56;101145.47;2274975;78;50330;-75
2023/06/10 10:32:12;;;;;;;;;;;;;;;26.64;39.55;101139.21;2253962;78;51681;-76
2023/06/10 10:35:15;;;;;;;;;;;;;;;26.66;39.55;101141.68;2275100;78;51413;-76
2023/06/10 10:38:16;;;;;;;;;;;;;;;26.64;39.58;101140.57;2275109;78;52191;-75
2023/06/10 10:41:18;;;;;;;;;;;;;;;26.65;39.58;101139.50;2260047;77;50664;-75
2023/06/10 10:44:20;;;;;;;;;;;;;;;26.64;39.58;101135.14;2212399;79;51445;-76
2023/06/10 10:47:22;;;;;;;;;;;;;;;26.64;39.61;101135.14;2244001;78;50866;-76
2023/06/10 10:50:24;;;;;;;;;;;;;;;26.66;39.55;101130.83;2244295;78;51250;-76
2023/06/10 10:53:28;;;;;;;;;;;;;;;26.66;39.53;101128.11;2244295;78;50344;-75
2023/06/10 10:56:30;;;;;;;;;;;;;;;26.68;39.49;101117.33;2212990;79;51491;-75
2023/06/10 10:59:45;;;;;;;;;;;;;;;26.65;39.54;101115.07;2188811;79;50164;-75
2023/06/10 11:02:47;;;;;;;;;;;;;;;26.64;39.54;101112.06;2244266;78;51523;-75
2023/06/10 11:05:49;;;;;;;;;;;;;;;26.67;39.47;101114.86;2244460;78;50307;-75
2023/06/10 11:08:51;;;;;;;;;;;;;;;26.66;39.49;101107.22;2247147;78;50722;-75
2023/06/10 11:11:52;;;;;;;;;;;;;;;26.70;39.41;101105.72;2230783;78;52299;-76
2023/06/10 11:14:55;;;;;;;;;;;;;;;26.65;39.44;101097.42;2233194;78;51338;-75
2023/06/10 11:18:11;;;;;;;;;;;;;;;26.66;39.41;101097.72;2291355;76;22428;-75
2023/06/10 11:21:10;;;;;;;;;;;;;;;26.64;39.45;101098.50;2323407;76;22001;-75
2023/06/10 11:24:13;;;;;;;;;;;;;;;26.64;39.49;101097.64;2295315;76;51126;-75
2023/06/10 11:27:17;;;;;;;;;;;;;;;26.63;39.49;101094.10;2324364;76;50270;-75
2023/06/10 11:30:19;;;;;;;;;;;;;;;26.64;39.44;101099.85;2324553;76;50764;-75
2023/06/10 11:33:21;;;;;;;;;;;;;;;26.61;39.48;101092.14;2295387;76;50753;-75
2023/06/10 11:36:23;;;;;;;;;;;;;;;26.62;39.44;101092.45;2294634;76;52840;-75
2023/06/10 11:39:26;;;;;;;;;;;;;;;26.62;39.43;101085.67;2295266;75;51510;-76
2023/06/10 11:42:28;;;;;;;;;;;;;;;26.61;39.52;101093.49;2282079;77;50080;-76
2023/06/10 11:45:29;;;;;;;;;;;;;;;26.62;39.44;101089.74;2297617;76;50263;-77
2023/06/10 11:48:31;;;;;;;;;;;;;;;26.63;39.44;101088.67;2253449;77;51138;-77
2023/06/10 11:51:36;;;;;;;;;;;;;;;26.61;39.45;101090.78;2297463;76;50733;-76
2023/06/10 11:54:38;;;;;;;;;;;;;;;26.64;39.39;101082.71;2297638;77;50256;-76
2023/06/10 11:57:40;;;;;;;;;;;;;;;26.61;39.42;101093.49;2297387;76;51526;-76
2023/06/10 12:00:43;;;;;;;;;;;;;;;26.64;39.36;101088.14;2278408;76;52336;-77
2023/06/10 12:03:45;;;;;;;;;;;;;;;26.65;39.31;101090.64;2296008;77;51442;-77
2023/06/10 12:06:53;;;;;;;;;;;;;;;26.63;39.34;101084.60;2278206;77;51510;-77
2023/06/10 12:10:01;;;;;;;;;;;;;;;26.63;39.38;101085.96;2309893;76;50759;-75
2023/06/10 12:13:02;;;;;;;;;;;;;;;26.64;39.34;101096.28;2265253;76;52587;-75
2023/06/10 12:16:10;;;;;;;;;;;;;;;26.61;39.36;101104.34;2293215;76;53884;-76
2023/06/10 12:19:12;;;;;;;;;;;;;;;26.63;39.36;101099.53;2322192;75;50906;-75
2023/06/10 12:22:14;;;;;;;;;;;;;;;26.63;39.32;101091.39;2322096;76;51482;-76
2023/06/10 12:25:15;;;;;;;;;;;;;;;26.63;39.33;101095.46;2322165;75;52189;-76
2023/06/10 12:28:19;;;;;;;;;;;;;;;26.64;39.28;101090.86;2293159;76;50482;-77
2023/06/10 12:31:20;;;;;;;;;;;;;;;26.65;39.27;101092.53;2322089;75;51508;-76
2023/06/10 12:34:23;;;;;;;;;;;;;;;26.64;39.31;101081.36;2293334;76;51392;-76
2023/06/10 12:37:25;;;;;;;;;;;;;;;26.67;39.26;101086.36;2315815;75;50274;-75
2023/06/10 12:40:31;;;;;;;;;;;;;;;26.65;39.28;101070.28;2318398;75;50716;-76
2023/06/10 12:43:33;;;;;;;;;;;;;;;26.60;39.42;101075.56;2295196;75;51487;-76
2023/06/10 12:46:37;;;;;;;;;;;;;;;26.60;39.42;101075.56;2313481;76;50687;-76
2023/06/10 12:49:39;;;;;;;;;;;;;;;26.57;39.54;101069.23;2293125;76;52519;-76
2023/06/10 12:52:41;;;;;;;;;;;;;;;26.57;39.54;101059.73;2293258;76;50103;-76
2023/06/10 12:55:42;;;;;;;;;;;;;;;26.58;39.54;101064.63;2293440;76;50709;-76
2023/06/10 12:58:44;;;;;;;;;;;;;;;26.57;39.58;101048.88;2321992;76;50208;-77
2023/06/10 13:01:47;;;;;;;;;;;;;;;26.60;39.53;101054.38;2293039;76;51674;-76
2023/06/10 13:04:49;;;;;;;;;;;;;;;26.60;39.54;101045.70;2321596;76;51506;-76
2023/06/10 13:07:50;;;;;;;;;;;;;;;26.59;39.56;101046.77;2321821;76;51464;-76
2023/06/10 13:10:52;;;;;;;;;;;;;;;26.60;39.57;101040.28;2322173;76;50679;-76
2023/06/10 13:13:54;;;;;;;;;;;;;;;26.61;39.57;101032.42;2322792;76;51569;-76
2023/06/10 13:16:56;;;;;;;;;;;;;;;26.61;39.58;101030.24;2313522;76;51545;-76
2023/06/10 13:19:57;;;;;;;;;;;;;;;26.60;39.61;101026.70;2322174;76;50784;-76
2023/06/10 13:22:59;;;;;;;;;;;;;;;26.62;39.59;101023.78;2322300;76;51511;-77
2023/06/10 13:26:03;;;;;;;;;;;;;;;26.63;39.61;101029.49;2268151;76;51682;-76
2023/06/10 13:29:05;;;;;;;;;;;;;;;26.62;39.67;101031.38;2322454;76;22302;-76
2023/06/10 13:32:07;;;;;;;;;;;;;;;26.62;39.70;101025.13;2293596;76;52343;-77
2023/06/10 13:35:09;;;;;;;;;;;;;;;26.62;39.69;101027.31;2293491;76;51506;-77
2023/06/10 13:38:11;;;;;;;;;;;;;;;26.62;39.71;101031.38;2292847;76;51754;-76
2023/06/10 13:41:12;;;;;;;;;;;;;;;26.59;39.82;101025.56;2293340;76;51364;-76
2023/06/10 13:44:14;;;;;;;;;;;;;;;26.59;39.82;101016.06;2292197;76;50278;-76
2023/06/10 13:47:16;;;;;;;;;;;;;;;26.58;39.85;101027.98;2315204;76;51492;-76
2023/06/10 13:50:17;;;;;;;;;;;;;;;26.57;39.86;101027.17;2267935;76;52357;-76
2023/06/10 13:53:19;;;;;;;;;;;;;;;26.59;39.83;101016.92;2322146;76;51496;-75
2023/06/10 13:56:20;;;;;;;;;;;;;;;26.57;39.88;101019.02;2322040;76;51500;-75
2023/06/10 13:59:22;;;;;;;;;;;;;;;26.63;39.78;101008.60;2293322;76;50337;-76
2023/06/10 14:02:24;;;;;;;;;;;;;;;26.65;39.69;101012.45;2292869;76;49618;-76
2023/06/10 14:05:25;;;;;;;;;;;;;;;26.64;39.74;101012.99;2293273;76;51356;-76
2023/06/10 14:08:27;;;;;;;;;;;;;;;26.62;39.82;101015.10;2322005;76;50414;-75
2023/06/10 14:11:28;;;;;;;;;;;;;;;26.62;39.84;101010.20;2293273;76;50353;-75
2023/06/10 14:14:31;;;;;;;;;;;;;;;26.59;39.90;101010.13;2293110;76;50693;-75
2023/06/10 14:17:32;;;;;;;;;;;;;;;26.60;39.91;101005.52;2322015;75;50153;-75
2023/06/10 14:20:34;;;;;;;;;;;;;;;26.61;39.92;101012.06;2322127;75;50269;-76
2023/06/10 14:23:36;;;;;;;;;;;;;;;26.63;39.90;101019.45;2322203;76;51534;-75
2023/06/10 14:26:37;;;;;;;;;;;;;;;26.61;39.95;101009.35;2292942;76;51234;-75
2023/06/10 14:29:39;;;;;;;;;;;;;;;26.62;40.01;101006.13;2293297;76;50058;-75
2023/06/10 14:32:40;;;;;;;;;;;;;;;26.64;39.96;101018.92;2322174;75;50400;-75
2023/06/10 14:35:43;;;;;;;;;;;;;;;26.63;39.98;101011.31;2293282;76;50087;-75
2023/06/10 14:38:46;;;;;;;;;;;;;;;26.63;39.98;101009.96;2293156;76;52445;-77
2023/06/10 14:41:47;;;;;;;;;;;;;;;26.65;39.97;101010.56;2293587;76;50444;-76
2023/06/10 14:44:49;;;;;;;;;;;;;;;26.65;39.97;101009.20;2313871;76;50399;-76
2023/06/10 14:47:51;;;;;;;;;;;;;;;26.68;39.98;101014.17;2293212;76;50283;-76
2023/06/10 14:50:55;;;;;;;;;;;;;;;26.68;39.96;101001.95;2292768;76;51484;-77
2023/06/10 14:53:56;;;;;;;;;;;;;;;26.69;39.96;101003.63;2293979;76;22349;-77
2023/06/10 14:56:57;;;;;;;;;;;;;;;26.73;40.05;101014.85;2293035;76;51503;-77
2023/06/10 14:59:59;;;;;;;;;;;;;;;26.77;40.53;101009.28;2332350;75;50610;-74
2023/06/10 15:03:01;;;;;;;;;;;;;;;26.78;40.60;101000.59;2332817;75;52322;-74
2023/06/10 15:06:03;;;;;;;;;;;;;;;26.77;40.70;100999.78;2356550;74;50345;-75
2023/06/10 15:09:04;;;;;;;;;;;;;;;26.82;40.72;100999.06;2332762;75;50678;-76
2023/06/10 15:12:07;;;;;;;;;;;;;;;26.83;40.94;100999.37;2334441;75;51123;-75
2023/06/10 15:15:09;;;;;;;;;;;;;;;26.82;41.03;100992.27;2297778;75;52456;-74
2023/06/10 15:18:10;;;;;;;;;;;;;;;26.82;41.13;100993.63;2334015;74;51435;-75
2023/06/10 15:21:12;;;;;;;;;;;;;;;26.82;41.37;100993.13;2334497;75;50607;-76
2023/06/10 15:24:15;;;;;;;;;;;;;;;26.84;41.64;100986.09;2334576;74;51405;-75
2023/06/10 15:27:16;;;;;;;;;;;;;;;26.85;41.57;100993.20;2308239;75;51813;-76
2023/06/10 15:30:18;;;;;;;;;;;;;;;26.85;41.59;100995.38;2364530;75;51539;-76
2023/06/10 15:33:19;;;;;;;;;;;;;;;26.86;42.25;101000.27;2364557;75;50728;-75